Mount Oliver, Pennsylvania
Current Conditions -  °F | °C
As of 5:53 AM on Tuesday 21 Oct 2014 (Local Time) from KAGC Reporting Station
Haze Haze  
Wind Chill: 50°   Ceiling: 700
Heat Index: 50°   Visibility: 5mi
Dew Point: 46°   Wind: 7mph
Humidity: 86%   Direction: 250°WSW
Pressure: 29.84"   Gusts: NA
Location:  40.4064°N, 79.9829°W
Report Text: KAGC 210953Z 25006KT 5SM BR OVC007 10/08 A2984 RMK AO2 CIG 005V009 SLP111 T01000078
Loading
Personal Weather Stations






























Interactive Weather Map New forecast layout! Learn more

10-Day Weather Forecast

Advertisements
Track Severe Weather on mobile